Nearby METAR Reports

 

CYOW - Ottawa Intl, Ontario, Canada
Distance from station: N 33km
Updated: 19/06/2018 17:00
Few Clouds
Few Clouds
 Wind from N
Wind: N 22 km/h
Temperature: 24°C
Dew Point: 7°C
Humidity: 34%
Barometer: 29.92 inHg , 1013.2 hPa
Clouds: Few Clouds
Visibility: 24 km
Cloud details: Few Clouds 7620 m
2018/06/19 21:00 CYOW 192100Z 35012KT 15SM FEW250 24/07 A2992 RMK CI1 CI TR SLP133 DENSITY ALT 1500FT
CYGK - Kingston Arpt, Ontario, Canada
Distance from station: SW 117km
Updated: 19/06/2018 17:00
Partly cloudy
Partly cloudy
 Wind from S
Wind: S 20 km/h
Temperature: 20°C
Dew Point: 13°C
Humidity: 64%
Barometer: 29.94 inHg , 1013.9 hPa
Clouds: Partly cloudy
Visibility: 24 km
Cloud details: Few Clouds 3658 m
Partly cloudy 6706 m
2018/06/19 21:00 CYGK 192100Z 19011KT 15SM FEW120 SCT220 20/13 A2994 RMK AC1CI2 SLP141 DENSITY ALT 1000FT
KMSS - Massena, New York, USA
Distance from station: E 62km
Updated: 19/06/2018 16:53
Clear
Clear
 Wind from N
Wind: N 15 km/h
Temperature: 23°C
Dew Point: 10°C
Humidity: 44%
Barometer: 29.92 inHg , 1013.2 hPa
Clouds: Clear
Visibility: 16 km
2018/06/19 20:53 KMSS 192053Z AUTO 35008KT 10SM CLR 23/10 A2992 RMK AO2 SLP132 T02330100 58005